sensor_id;sensor_type;location;lat;lon;timestamp;temperature;humidity
11762;DHT22;5938;47.098;15.474;2023-07-29T00:00:51;18.10;99.90
11762;DHT22;5938;47.098;15.474;2023-07-29T00:04:54;18.10;99.90
11762;DHT22;5938;47.098;15.474;2023-07-29T00:08:57;18.10;99.90
11762;DHT22;5938;47.098;15.474;2023-07-29T00:13:03;18.00;99.90
11762;DHT22;5938;47.098;15.474;2023-07-29T00:17:06;18.00;99.90
11762;DHT22;5938;47.098;15.474;2023-07-29T00:21:10;18.00;99.90
11762;DHT22;5938;47.098;15.474;2023-07-29T00:25:14;18.00;99.90
11762;DHT22;5938;47.098;15.474;2023-07-29T00:29:18;18.00;99.90
11762;DHT22;5938;47.098;15.474;2023-07-29T00:33:23;17.80;99.90
11762;DHT22;5938;47.098;15.474;2023-07-29T00:37:28;17.80;99.90
11762;DHT22;5938;47.098;15.474;2023-07-29T00:41:32;17.80;99.90
11762;DHT22;5938;47.098;15.474;2023-07-29T00:45:37;17.70;99.90
11762;DHT22;5938;47.098;15.474;2023-07-29T00:49:42;17.70;99.90
11762;DHT22;5938;47.098;15.474;2023-07-29T00:53:47;17.60;99.90
11762;DHT22;5938;47.098;15.474;2023-07-29T00:57:51;17.50;99.90
11762;DHT22;5938;47.098;15.474;2023-07-29T01:01:58;17.50;99.90
11762;DHT22;5938;47.098;15.474;2023-07-29T01:06:08;17.40;99.90
11762;DHT22;5938;47.098;15.474;2023-07-29T01:10:22;17.40;99.90
11762;DHT22;5938;47.098;15.474;2023-07-29T01:14:36;17.30;99.90
11762;DHT22;5938;47.098;15.474;2023-07-29T01:18:46;17.20;99.90
11762;DHT22;5938;47.098;15.474;2023-07-29T01:22:51;17.10;99.90
11762;DHT22;5938;47.098;15.474;2023-07-29T01:26:56;17.00;99.90
11762;DHT22;5938;47.098;15.474;2023-07-29T01:31:03;16.90;99.90
11762;DHT22;5938;47.098;15.474;2023-07-29T01:35:15;16.90;99.90
11762;DHT22;5938;47.098;15.474;2023-07-29T01:39:22;16.80;99.90
11762;DHT22;5938;47.098;15.474;2023-07-29T01:43:29;16.80;99.90
11762;DHT22;5938;47.098;15.474;2023-07-29T01:47:33;16.70;99.90
11762;DHT22;5938;47.098;15.474;2023-07-29T01:51:36;16.60;99.90
11762;DHT22;5938;47.098;15.474;2023-07-29T01:55:41;16.60;99.90
11762;DHT22;5938;47.098;15.474;2023-07-29T01:59:48;16.50;99.90
11762;DHT22;5938;47.098;15.474;2023-07-29T02:03:51;16.40;99.90
11762;DHT22;5938;47.098;15.474;2023-07-29T02:07:58;16.40;99.90
11762;DHT22;5938;47.098;15.474;2023-07-29T02:12:01;16.40;99.90
11762;DHT22;5938;47.098;15.474;2023-07-29T02:16:06;16.30;99.90
11762;DHT22;5938;47.098;15.474;2023-07-29T02:20:11;16.20;99.90
11762;DHT22;5938;47.098;15.474;2023-07-29T02:24:14;16.20;99.90
11762;DHT22;5938;47.098;15.474;2023-07-29T02:28:18;16.20;99.90
11762;DHT22;5938;47.098;15.474;2023-07-29T02:32:23;16.10;99.90
11762;DHT22;5938;47.098;15.474;2023-07-29T02:36:52;16.10;99.90
11762;DHT22;5938;47.098;15.474;2023-07-29T02:40:56;16.10;99.90
11762;DHT22;5938;47.098;15.474;2023-07-29T02:45:00;16.10;99.90
11762;DHT22;5938;47.098;15.474;2023-07-29T02:49:05;16.10;99.90
11762;DHT22;5938;47.098;15.474;2023-07-29T02:53:09;16.10;99.90
11762;DHT22;5938;47.098;15.474;2023-07-29T02:57:13;16.10;99.90
11762;DHT22;5938;47.098;15.474;2023-07-29T03:01:17;16.10;99.90
11762;DHT22;5938;47.098;15.474;2023-07-29T03:05:22;16.20;99.90
11762;DHT22;5938;47.098;15.474;2023-07-29T03:09:26;16.20;99.90
11762;DHT22;5938;47.098;15.474;2023-07-29T03:13:30;16.30;99.90
11762;DHT22;5938;47.098;15.474;2023-07-29T03:17:33;16.40;99.90
11762;DHT22;5938;47.098;15.474;2023-07-29T03:21:38;16.40;99.90
11762;DHT22;5938;47.098;15.474;2023-07-29T03:25:49;16.40;99.90
11762;DHT22;5938;47.098;15.474;2023-07-29T03:29:58;16.50;99.90
11762;DHT22;5938;47.098;15.474;2023-07-29T03:34:02;16.50;99.90
11762;DHT22;5938;47.098;15.474;2023-07-29T03:38:09;16.50;99.90
11762;DHT22;5938;47.098;15.474;2023-07-29T03:42:13;16.60;99.90
11762;DHT22;5938;47.098;15.474;2023-07-29T03:46:16;16.50;99.90
11762;DHT22;5938;47.098;15.474;2023-07-29T03:50:23;16.50;99.90
11762;DHT22;5938;47.098;15.474;2023-07-29T03:54:28;16.60;99.90
11762;DHT22;5938;47.098;15.474;2023-07-29T03:58:41;16.60;99.90
11762;DHT22;5938;47.098;15.474;2023-07-29T04:02:44;16.70;99.90
11762;DHT22;5938;47.098;15.474;2023-07-29T04:06:49;16.60;99.90
11762;DHT22;5938;47.098;15.474;2023-07-29T04:10:53;16.60;99.90
11762;DHT22;5938;47.098;15.474;2023-07-29T04:14:58;16.70;99.90
11762;DHT22;5938;47.098;15.474;2023-07-29T04:19:01;16.70;99.90
11762;DHT22;5938;47.098;15.474;2023-07-29T04:23:05;16.70;99.90
11762;DHT22;5938;47.098;15.474;2023-07-29T04:27:11;16.80;99.90
11762;DHT22;5938;47.098;15.474;2023-07-29T04:31:14;16.80;99.90
11762;DHT22;5938;47.098;15.474;2023-07-29T04:35:18;16.80;99.90
11762;DHT22;5938;47.098;15.474;2023-07-29T04:39:21;16.90;99.90
11762;DHT22;5938;47.098;15.474;2023-07-29T04:43:30;16.90;99.90
11762;DHT22;5938;47.098;15.474;2023-07-29T04:47:34;16.90;99.90
11762;DHT22;5938;47.098;15.474;2023-07-29T04:51:39;17.00;99.90
11762;DHT22;5938;47.098;15.474;2023-07-29T04:55:42;17.20;99.90
11762;DHT22;5938;47.098;15.474;2023-07-29T04:59:48;17.30;99.90
11762;DHT22;5938;47.098;15.474;2023-07-29T05:03:51;17.50;99.90
11762;DHT22;5938;47.098;15.474;2023-07-29T05:07:54;17.70;99.90
11762;DHT22;5938;47.098;15.474;2023-07-29T05:11:58;17.80;99.90
11762;DHT22;5938;47.098;15.474;2023-07-29T05:16:03;17.80;99.90
11762;DHT22;5938;47.098;15.474;2023-07-29T05:20:08;17.90;99.90
11762;DHT22;5938;47.098;15.474;2023-07-29T05:24:11;18.10;99.90
11762;DHT22;5938;47.098;15.474;2023-07-29T05:28:15;18.10;99.90
11762;DHT22;5938;47.098;15.474;2023-07-29T05:32:21;17.90;99.90
11762;DHT22;5938;47.098;15.474;2023-07-29T05:36:24;17.80;99.90
11762;DHT22;5938;47.098;15.474;2023-07-29T05:40:28;18.00;99.90
11762;DHT22;5938;47.098;15.474;2023-07-29T05:44:31;18.00;99.90
11762;DHT22;5938;47.098;15.474;2023-07-29T05:48:36;18.10;99.90
11762;DHT22;5938;47.098;15.474;2023-07-29T05:52:39;18.00;99.90
11762;DHT22;5938;47.098;15.474;2023-07-29T05:56:43;18.10;99.90
11762;DHT22;5938;47.098;15.474;2023-07-29T06:00:46;18.10;99.90
11762;DHT22;5938;47.098;15.474;2023-07-29T06:04:52;18.10;99.90
11762;DHT22;5938;47.098;15.474;2023-07-29T06:08:55;18.20;99.90
11762;DHT22;5938;47.098;15.474;2023-07-29T06:13:00;18.20;99.90
11762;DHT22;5938;47.098;15.474;2023-07-29T06:17:03;18.30;99.90
11762;DHT22;5938;47.098;15.474;2023-07-29T06:21:10;18.70;99.90
11762;DHT22;5938;47.098;15.474;2023-07-29T06:25:19;19.00;99.90
11762;DHT22;5938;47.098;15.474;2023-07-29T06:29:22;19.50;99.90
11762;DHT22;5938;47.098;15.474;2023-07-29T06:33:26;19.50;99.90
11762;DHT22;5938;47.098;15.474;2023-07-29T06:37:31;19.70;99.90
11762;DHT22;5938;47.098;15.474;2023-07-29T06:41:35;19.90;99.90
11762;DHT22;5938;47.098;15.474;2023-07-29T06:45:38;20.30;99.90
11762;DHT22;5938;47.098;15.474;2023-07-29T06:49:42;20.70;99.90
11762;DHT22;5938;47.098;15.474;2023-07-29T06:53:48;20.60;99.90
11762;DHT22;5938;47.098;15.474;2023-07-29T06:57:52;20.20;99.90
11762;DHT22;5938;47.098;15.474;2023-07-29T07:01:55;20.00;99.90
11762;DHT22;5938;47.098;15.474;2023-07-29T07:05:59;19.90;99.90
11762;DHT22;5938;47.098;15.474;2023-07-29T07:10:05;19.80;99.90
11762;DHT22;5938;47.098;15.474;2023-07-29T07:14:08;19.70;99.90
11762;DHT22;5938;47.098;15.474;2023-07-29T07:18:12;19.80;99.90
11762;DHT22;5938;47.098;15.474;2023-07-29T07:22:17;20.20;99.90
11762;DHT22;5938;47.098;15.474;2023-07-29T07:26:22;20.20;99.90
11762;DHT22;5938;47.098;15.474;2023-07-29T07:30:26;20.30;99.90
11762;DHT22;5938;47.098;15.474;2023-07-29T07:34:29;20.50;99.90
11762;DHT22;5938;47.098;15.474;2023-07-29T07:38:33;20.70;99.90
11762;DHT22;5938;47.098;15.474;2023-07-29T07:42:37;20.90;99.90
11762;DHT22;5938;47.098;15.474;2023-07-29T07:46:42;21.20;99.90
11762;DHT22;5938;47.098;15.474;2023-07-29T07:50:46;21.40;99.90
11762;DHT22;5938;47.098;15.474;2023-07-29T07:54:52;21.60;99.90
11762;DHT22;5938;47.098;15.474;2023-07-29T07:58:56;21.90;99.90
11762;DHT22;5938;47.098;15.474;2023-07-29T08:03:00;22.20;99.90
11762;DHT22;5938;47.098;15.474;2023-07-29T08:07:05;22.40;99.90
11762;DHT22;5938;47.098;15.474;2023-07-29T08:11:08;22.40;99.90
11762;DHT22;5938;47.098;15.474;2023-07-29T08:15:13;22.60;99.90
11762;DHT22;5938;47.098;15.474;2023-07-29T08:19:16;22.70;99.90
11762;DHT22;5938;47.098;15.474;2023-07-29T08:23:24;23.00;99.90
11762;DHT22;5938;47.098;15.474;2023-07-29T08:27:27;23.60;99.90
11762;DHT22;5938;47.098;15.474;2023-07-29T08:31:32;24.30;99.90
11762;DHT22;5938;47.098;15.474;2023-07-29T08:35:36;24.90;99.90
11762;DHT22;5938;47.098;15.474;2023-07-29T08:39:39;25.20;99.30
11762;DHT22;5938;47.098;15.474;2023-07-29T08:43:49;25.70;99.00
11762;DHT22;5938;47.098;15.474;2023-07-29T08:47:57;26.40;99.40
11762;DHT22;5938;47.098;15.474;2023-07-29T08:52:02;27.00;97.00
11762;DHT22;5938;47.098;15.474;2023-07-29T08:56:08;28.40;94.10
11762;DHT22;5938;47.098;15.474;2023-07-29T09:00:12;30.40;90.90
11762;DHT22;5938;47.098;15.474;2023-07-29T09:04:18;31.50;90.10
11762;DHT22;5938;47.098;15.474;2023-07-29T09:08:22;33.80;84.20
11762;DHT22;5938;47.098;15.474;2023-07-29T09:12:27;33.80;79.40
11762;DHT22;5938;47.098;15.474;2023-07-29T09:16:32;34.30;80.50
11762;DHT22;5938;47.098;15.474;2023-07-29T09:20:38;35.10;75.80
11762;DHT22;5938;47.098;15.474;2023-07-29T09:24:41;34.30;75.20
11762;DHT22;5938;47.098;15.474;2023-07-29T09:28:51;34.50;74.80
11762;DHT22;5938;47.098;15.474;2023-07-29T09:32:55;34.90;74.30
11762;DHT22;5938;47.098;15.474;2023-07-29T09:37:01;35.80;72.90
11762;DHT22;5938;47.098;15.474;2023-07-29T09:41:04;36.20;74.10
11762;DHT22;5938;47.098;15.474;2023-07-29T09:45:08;36.80;69.60
11762;DHT22;5938;47.098;15.474;2023-07-29T09:49:12;36.30;70.90
11762;DHT22;5938;47.098;15.474;2023-07-29T09:53:17;36.00;70.00
11762;DHT22;5938;47.098;15.474;2023-07-29T09:57:21;36.00;71.70
11762;DHT22;5938;47.098;15.474;2023-07-29T10:01:25;36.90;70.10
11762;DHT22;5938;47.098;15.474;2023-07-29T10:05:29;37.50;69.20
11762;DHT22;5938;47.098;15.474;2023-07-29T10:09:35;37.10;66.30
11762;DHT22;5938;47.098;15.474;2023-07-29T10:13:39;37.10;67.80
11762;DHT22;5938;47.098;15.474;2023-07-29T10:17:46;37.50;68.10
11762;DHT22;5938;47.098;15.474;2023-07-29T10:21:51;37.30;66.00
11762;DHT22;5938;47.098;15.474;2023-07-29T10:26:01;37.30;70.30
11762;DHT22;5938;47.098;15.474;2023-07-29T10:30:07;36.60;67.40
11762;DHT22;5938;47.098;15.474;2023-07-29T10:34:12;36.80;68.70
11762;DHT22;5938;47.098;15.474;2023-07-29T10:38:16;36.50;70.60
11762;DHT22;5938;47.098;15.474;2023-07-29T10:42:22;37.50;68.10
11762;DHT22;5938;47.098;15.474;2023-07-29T10:46:26;37.50;66.90
11762;DHT22;5938;47.098;15.474;2023-07-29T10:50:29;37.30;67.50
11762;DHT22;5938;47.098;15.474;2023-07-29T11:00:08;37.80;64.30
11762;DHT22;5938;47.098;15.474;2023-07-29T11:04:25;36.80;67.60
11762;DHT22;5938;47.098;15.474;2023-07-29T11:08:31;37.50;67.80
11762;DHT22;5938;47.098;15.474;2023-07-29T11:12:40;37.40;64.40
11762;DHT22;5938;47.098;15.474;2023-07-29T11:17:21;35.10;70.60
11762;DHT22;5938;47.098;15.474;2023-07-29T11:21:27;36.20;67.10
11762;DHT22;5938;47.098;15.474;2023-07-29T11:25:31;36.30;65.90
11762;DHT22;5938;47.098;15.474;2023-07-29T11:29:36;37.10;66.20
11762;DHT22;5938;47.098;15.474;2023-07-29T11:33:41;38.00;62.60
11762;DHT22;5938;47.098;15.474;2023-07-29T11:37:48;38.20;62.90
11762;DHT22;5938;47.098;15.474;2023-07-29T11:41:51;37.30;60.20
11762;DHT22;5938;47.098;15.474;2023-07-29T11:45:55;38.30;62.80
11762;DHT22;5938;47.098;15.474;2023-07-29T11:50:05;40.40;60.60
11762;DHT22;5938;47.098;15.474;2023-07-29T11:54:09;41.00;56.30
11762;DHT22;5938;47.098;15.474;2023-07-29T11:58:12;40.10;57.30
11762;DHT22;5938;47.098;15.474;2023-07-29T12:02:17;39.60;57.70
11762;DHT22;5938;47.098;15.474;2023-07-29T12:06:24;39.50;58.60
11762;DHT22;5938;47.098;15.474;2023-07-29T12:10:46;39.10;58.80
11762;DHT22;5938;47.098;15.474;2023-07-29T12:14:50;39.50;59.40
11762;DHT22;5938;47.098;15.474;2023-07-29T12:18:53;41.30;59.20
11762;DHT22;5938;47.098;15.474;2023-07-29T12:22:59;41.70;56.60
11762;DHT22;5938;47.098;15.474;2023-07-29T12:27:05;41.00;56.30
11762;DHT22;5938;47.098;15.474;2023-07-29T12:31:10;40.00;56.70
11762;DHT22;5938;47.098;15.474;2023-07-29T12:35:14;39.00;61.50
11762;DHT22;5938;47.098;15.474;2023-07-29T12:39:22;37.50;64.30
11762;DHT22;5938;47.098;15.474;2023-07-29T12:43:27;37.10;64.90
11762;DHT22;5938;47.098;15.474;2023-07-29T12:47:31;37.90;63.60
11762;DHT22;5938;47.098;15.474;2023-07-29T12:51:36;39.40;60.00
11762;DHT22;5938;47.098;15.474;2023-07-29T12:55:41;39.20;61.40
11762;DHT22;5938;47.098;15.474;2023-07-29T12:59:44;36.70;65.40
11762;DHT22;5938;47.098;15.474;2023-07-29T13:03:48;35.60;68.00
11762;DHT22;5938;47.098;15.474;2023-07-29T13:07:52;34.80;73.20
11762;DHT22;5938;47.098;15.474;2023-07-29T13:11:56;33.00;78.00
11762;DHT22;5938;47.098;15.474;2023-07-29T13:16:01;30.80;80.30
11762;DHT22;5938;47.098;15.474;2023-07-29T13:20:06;29.20;88.90
11762;DHT22;5938;47.098;15.474;2023-07-29T13:24:10;27.00;95.40
11762;DHT22;5938;47.098;15.474;2023-07-29T13:28:16;26.00;99.90
11762;DHT22;5938;47.098;15.474;2023-07-29T13:32:19;25.70;99.90
11762;DHT22;5938;47.098;15.474;2023-07-29T13:36:23;25.10;99.90
11762;DHT22;5938;47.098;15.474;2023-07-29T13:40:26;25.10;99.90
11762;DHT22;5938;47.098;15.474;2023-07-29T13:44:32;27.40;99.90
11762;DHT22;5938;47.098;15.474;2023-07-29T13:48:36;32.30;93.80
11762;DHT22;5938;47.098;15.474;2023-07-29T13:52:40;36.50;87.00
11762;DHT22;5938;47.098;15.474;2023-07-29T13:56:44;39.60;77.80
11762;DHT22;5938;47.098;15.474;2023-07-29T14:00:48;41.30;71.30
11762;DHT22;5938;47.098;15.474;2023-07-29T14:04:52;42.50;67.60
11762;DHT22;5938;47.098;15.474;2023-07-29T14:08:55;41.20;64.90
11762;DHT22;5938;47.098;15.474;2023-07-29T14:12:59;39.90;67.90
11762;DHT22;5938;47.098;15.474;2023-07-29T14:17:04;40.40;68.30
11762;DHT22;5938;47.098;15.474;2023-07-29T14:21:09;41.10;64.90
11762;DHT22;5938;47.098;15.474;2023-07-29T14:25:16;40.10;67.10
11762;DHT22;5938;47.098;15.474;2023-07-29T14:29:20;38.00;70.30
11762;DHT22;5938;47.098;15.474;2023-07-29T14:33:25;37.00;73.40
11762;DHT22;5938;47.098;15.474;2023-07-29T14:37:30;35.30;77.70
11762;DHT22;5938;47.098;15.474;2023-07-29T14:41:36;33.60;81.90
11762;DHT22;5938;47.098;15.474;2023-07-29T14:45:46;33.30;85.00
11762;DHT22;5938;47.098;15.474;2023-07-29T14:49:54;33.60;83.80
11762;DHT22;5938;47.098;15.474;2023-07-29T14:54:05;33.70;84.50
11762;DHT22;5938;47.098;15.474;2023-07-29T14:58:13;35.90;79.10
11762;DHT22;5938;47.098;15.474;2023-07-29T15:02:19;37.30;75.50
11762;DHT22;5938;47.098;15.474;2023-07-29T15:06:27;38.10;72.60
11762;DHT22;5938;47.098;15.474;2023-07-29T15:10:33;39.10;71.50
11762;DHT22;5938;47.098;15.474;2023-07-29T15:14:37;39.90;67.60
11762;DHT22;5938;47.098;15.474;2023-07-29T15:18:44;39.20;67.30
11762;DHT22;5938;47.098;15.474;2023-07-29T15:22:50;39.70;67.40
11762;DHT22;5938;47.098;15.474;2023-07-29T15:26:56;40.40;64.40
11762;DHT22;5938;47.098;15.474;2023-07-29T15:31:00;39.60;64.10
11762;DHT22;5938;47.098;15.474;2023-07-29T15:35:06;40.00;64.10
11762;DHT22;5938;47.098;15.474;2023-07-29T15:39:16;39.00;67.20
11762;DHT22;5938;47.098;15.474;2023-07-29T15:43:24;38.70;68.20
11762;DHT22;5938;47.098;15.474;2023-07-29T15:47:30;39.70;66.00
11762;DHT22;5938;47.098;15.474;2023-07-29T15:51:39;39.10;64.90
11762;DHT22;5938;47.098;15.474;2023-07-29T15:55:50;38.30;67.60
11762;DHT22;5938;47.098;15.474;2023-07-29T15:59:54;38.70;66.70
11762;DHT22;5938;47.098;15.474;2023-07-29T16:03:58;38.60;65.70
11762;DHT22;5938;47.098;15.474;2023-07-29T16:08:04;38.10;67.30
11762;DHT22;5938;47.098;15.474;2023-07-29T16:12:11;38.30;68.60
11762;DHT22;5938;47.098;15.474;2023-07-29T16:16:19;38.50;66.50
11762;DHT22;5938;47.098;15.474;2023-07-29T16:20:29;38.10;67.40
11762;DHT22;5938;47.098;15.474;2023-07-29T16:24:38;37.50;69.30
11762;DHT22;5938;47.098;15.474;2023-07-29T16:28:47;37.10;69.10
11762;DHT22;5938;47.098;15.474;2023-07-29T16:32:53;35.40;72.20
11762;DHT22;5938;47.098;15.474;2023-07-29T16:36:58;32.80;80.70
11762;DHT22;5938;47.098;15.474;2023-07-29T16:41:04;30.70;85.20
11762;DHT22;5938;47.098;15.474;2023-07-29T16:45:28;29.50;89.60
11762;DHT22;5938;47.098;15.474;2023-07-29T16:49:32;28.60;91.00
11762;DHT22;5938;47.098;15.474;2023-07-29T16:53:36;28.00;92.50
11762;DHT22;5938;47.098;15.474;2023-07-29T16:57:40;27.40;93.80
11762;DHT22;5938;47.098;15.474;2023-07-29T17:01:45;26.90;94.80
11762;DHT22;5938;47.098;15.474;2023-07-29T17:05:57;26.40;95.70
11762;DHT22;5938;47.098;15.474;2023-07-29T17:10:09;26.20;97.90
11762;DHT22;5938;47.098;15.474;2023-07-29T17:14:13;26.30;97.90
11762;DHT22;5938;47.098;15.474;2023-07-29T17:18:18;26.40;98.30
11762;DHT22;5938;47.098;15.474;2023-07-29T17:22:23;26.40;97.90
11762;DHT22;5938;47.098;15.474;2023-07-29T17:26:37;26.20;98.40
11762;DHT22;5938;47.098;15.474;2023-07-29T17:30:48;25.80;99.90
11762;DHT22;5938;47.098;15.474;2023-07-29T17:40:29;25.10;99.90
11762;DHT22;5938;47.098;15.474;2023-07-29T17:44:41;24.60;99.90
11762;DHT22;5938;47.098;15.474;2023-07-29T17:48:45;24.20;99.90
11762;DHT22;5938;47.098;15.474;2023-07-29T17:52:52;24.10;99.90
11762;DHT22;5938;47.098;15.474;2023-07-29T17:57:06;24.00;99.90
11762;DHT22;5938;47.098;15.474;2023-07-29T18:01:19;23.80;99.90
11762;DHT22;5938;47.098;15.474;2023-07-29T18:05:27;23.60;99.90
11762;DHT22;5938;47.098;15.474;2023-07-29T18:09:32;23.50;99.90
11762;DHT22;5938;47.098;15.474;2023-07-29T18:13:41;23.40;99.90
11762;DHT22;5938;47.098;15.474;2023-07-29T18:17:52;23.30;99.90
11762;DHT22;5938;47.098;15.474;2023-07-29T18:22:00;23.20;99.90
11762;DHT22;5938;47.098;15.474;2023-07-29T18:26:09;23.10;99.90
11762;DHT22;5938;47.098;15.474;2023-07-29T18:30:18;23.10;99.90
11762;DHT22;5938;47.098;15.474;2023-07-29T18:34:33;23.00;99.90
11762;DHT22;5938;47.098;15.474;2023-07-29T18:39:16;23.00;99.90
11762;DHT22;5938;47.098;15.474;2023-07-29T18:43:44;22.90;99.90
11762;DHT22;5938;47.098;15.474;2023-07-29T18:47:54;22.80;99.90
11762;DHT22;5938;47.098;15.474;2023-07-29T18:52:07;22.80;99.90
11762;DHT22;5938;47.098;15.474;2023-07-29T18:56:35;22.80;99.90
11762;DHT22;5938;47.098;15.474;2023-07-29T19:01:01;22.70;99.90
11762;DHT22;5938;47.098;15.474;2023-07-29T19:05:13;22.60;99.90
11762;DHT22;5938;47.098;15.474;2023-07-29T19:09:27;22.60;99.90
11762;DHT22;5938;47.098;15.474;2023-07-29T19:14:14;22.70;99.90
11762;DHT22;5938;47.098;15.474;2023-07-29T19:18:39;22.70;99.90
11762;DHT22;5938;47.098;15.474;2023-07-29T19:22:54;22.70;99.90
11762;DHT22;5938;47.098;15.474;2023-07-29T19:27:19;22.70;99.90
11762;DHT22;5938;47.098;15.474;2023-07-29T19:31:32;22.60;99.90
11762;DHT22;5938;47.098;15.474;2023-07-29T19:36:08;22.60;99.90
11762;DHT22;5938;47.098;15.474;2023-07-29T19:40:36;22.50;99.90
11762;DHT22;5938;47.098;15.474;2023-07-29T19:44:49;22.40;99.90
11762;DHT22;5938;47.098;15.474;2023-07-29T19:48:58;22.30;99.90
11762;DHT22;5938;47.098;15.474;2023-07-29T19:53:05;22.00;99.90
11762;DHT22;5938;47.098;15.474;2023-07-29T19:57:16;21.70;99.90
11762;DHT22;5938;47.098;15.474;2023-07-29T20:01:21;21.30;99.90
11762;DHT22;5938;47.098;15.474;2023-07-29T20:05:28;21.10;99.90
11762;DHT22;5938;47.098;15.474;2023-07-29T20:09:33;20.90;99.90
11762;DHT22;5938;47.098;15.474;2023-07-29T20:13:40;20.50;99.90
11762;DHT22;5938;47.098;15.474;2023-07-29T20:17:48;20.00;99.90
11762;DHT22;5938;47.098;15.474;2023-07-29T20:22:05;19.40;99.90
11762;DHT22;5938;47.098;15.474;2023-07-29T20:26:11;18.90;99.90
11762;DHT22;5938;47.098;15.474;2023-07-29T20:30:18;18.60;99.90
11762;DHT22;5938;47.098;15.474;2023-07-29T20:40:04;18.20;99.90
11762;DHT22;5938;47.098;15.474;2023-07-29T20:45:00;18.10;99.90
11762;DHT22;5938;47.098;15.474;2023-07-29T20:49:27;18.20;99.90
11762;DHT22;5938;47.098;15.474;2023-07-29T20:53:42;18.20;99.90
11762;DHT22;5938;47.098;15.474;2023-07-29T20:58:25;18.10;99.90
11762;DHT22;5938;47.098;15.474;2023-07-29T21:02:59;18.10;99.90
11762;DHT22;5938;47.098;15.474;2023-07-29T21:07:16;18.00;99.90
11762;DHT22;5938;47.098;15.474;2023-07-29T21:11:53;18.00;99.90
11762;DHT22;5938;47.098;15.474;2023-07-29T21:21:57;18.00;99.90
11762;DHT22;5938;47.098;15.474;2023-07-29T21:26:09;17.90;99.90
11762;DHT22;5938;47.098;15.474;2023-07-29T21:30:14;17.90;99.90
11762;DHT22;5938;47.098;15.474;2023-07-29T21:34:18;17.60;99.90
11762;DHT22;5938;47.098;15.474;2023-07-29T21:38:21;17.60;99.90
11762;DHT22;5938;47.098;15.474;2023-07-29T21:42:32;17.50;99.90
11762;DHT22;5938;47.098;15.474;2023-07-29T21:46:36;17.30;99.90
11762;DHT22;5938;47.098;15.474;2023-07-29T21:50:41;17.20;99.90
11762;DHT22;5938;47.098;15.474;2023-07-29T21:54:44;17.20;99.90
11762;DHT22;5938;47.098;15.474;2023-07-29T21:58:49;17.20;99.90
11762;DHT22;5938;47.098;15.474;2023-07-29T22:02:52;17.20;99.90
11762;DHT22;5938;47.098;15.474;2023-07-29T22:06:58;17.30;99.90
11762;DHT22;5938;47.098;15.474;2023-07-29T22:11:03;17.30;99.90
11762;DHT22;5938;47.098;15.474;2023-07-29T22:15:09;17.30;99.90
11762;DHT22;5938;47.098;15.474;2023-07-29T22:19:12;17.30;99.90
11762;DHT22;5938;47.098;15.474;2023-07-29T22:23:16;17.30;99.90
11762;DHT22;5938;47.098;15.474;2023-07-29T22:27:19;17.40;99.90
11762;DHT22;5938;47.098;15.474;2023-07-29T22:31:24;17.30;99.90
11762;DHT22;5938;47.098;15.474;2023-07-29T22:35:28;17.20;99.90
11762;DHT22;5938;47.098;15.474;2023-07-29T22:39:31;17.20;99.90
11762;DHT22;5938;47.098;15.474;2023-07-29T22:43:35;17.30;99.90
11762;DHT22;5938;47.098;15.474;2023-07-29T22:47:39;17.20;99.90
11762;DHT22;5938;47.098;15.474;2023-07-29T22:51:44;17.20;99.90
11762;DHT22;5938;47.098;15.474;2023-07-29T22:55:49;17.20;99.90
11762;DHT22;5938;47.098;15.474;2023-07-29T22:59:53;17.10;99.90
11762;DHT22;5938;47.098;15.474;2023-07-29T23:03:58;17.10;99.90
11762;DHT22;5938;47.098;15.474;2023-07-29T23:08:01;17.10;99.90
11762;DHT22;5938;47.098;15.474;2023-07-29T23:12:05;17.10;99.90
11762;DHT22;5938;47.098;15.474;2023-07-29T23:16:09;17.10;99.90
11762;DHT22;5938;47.098;15.474;2023-07-29T23:20:14;17.10;99.90
11762;DHT22;5938;47.098;15.474;2023-07-29T23:24:17;16.90;99.90
11762;DHT22;5938;47.098;15.474;2023-07-29T23:28:20;16.90;99.90
11762;DHT22;5938;47.098;15.474;2023-07-29T23:32:24;17.00;99.90
11762;DHT22;5938;47.098;15.474;2023-07-29T23:36:29;17.00;99.90
11762;DHT22;5938;47.098;15.474;2023-07-29T23:40:32;16.90;99.90
11762;DHT22;5938;47.098;15.474;2023-07-29T23:44:35;17.00;99.90
11762;DHT22;5938;47.098;15.474;2023-07-29T23:48:39;17.00;99.90
11762;DHT22;5938;47.098;15.474;2023-07-29T23:52:44;17.10;99.90
11762;DHT22;5938;47.098;15.474;2023-07-29T23:56:47;17.10;99.90
